Mechanicsburg, IL (62545)

5:30 PM CDT on July 05, 2015 (GMT -0500)
South Weather Station | | Change Station
CLOSE
Current Station
Personal Weather Station
Location: Mechanicsburg, IL
Elevation: 587 ft
Nearby Weather Stations

Elev 587 ft 39.80 °N, 89.40 °W | Updated 28 seconds ago

Clear
Clear
86.8 °F
Feels Like 91 °F
N
6.0
Wind Variable Wind from South
Gusts 12.0 mph

Today
High -- | Low -- °F
--% Chance of Precip.
Yesterday
High -- | Low -- °F
Precip. -- in
5:35 AM 8:28 PM
Waning Gibbous, 81% visible
Pressure 30.01 in
Visibility 9.0 miles
Clouds Few 4600 ft
Heat Index 91 °F
Dew Point 69 °F
Humidity 56%
Rainfall 0.00 in
Snow Depth Not available.
UV 5 out of 12
Pollen 3.90 out of 12
Air Quality Not available.
Flu Activity Not available.
METAR KSPI 052152Z 18007KT 9SM FEW046 29/19 A3002 RMK AO2 SLP162 T02890194

More Conditions Fewer Conditions

Pressure 30.01 in
Visibility 9.0 miles
Clouds Few 4600 ft
Heat Index 91 °F
Dew Point 69 °F
Humidity 56%
Rainfall 0.00 in
Snow Depth Not available.
UV 5 out of 12
Pollen 3.90 out of 12
Air Quality Not available.
Flu Activity Not available.
METAR KSPI 052152Z 18007KT 9SM FEW046 29/19 A3002 RMK AO2 SLP162 T02890194

More Conditions Fewer Conditions

10-Day Weather Forecast

×

Almanac

Astronomy

Jul. 05, 2015 Rise Set
Actual Time
Civil Twilight
Nautical Twilight
Astronomical Twilight
Moon
Length of Visible Light
Length of Day
Tomorrow will be .
, % of the Moon is Illuminated

Today's Extremes

State Highs State Lows

Community

WunderPhotos

Upload Photos

1,835,414 photos uploaded!

WunderBlogs® & News

Nearby

Air Quality

  Air Quality AQ Index Pollutant
Not available.

Snow Depth

Station Depth Elevation

Earthquake Activity

City Distance Mag. Time & Date
Minimum magnitude displayed is 2.5.

Coastal Water Temperatures

Place Temperature

Stations

Nearby Weather Stations

Station Location Temp. Windchill Dew Point Humidity Wind Precip. Elev Updated Type